createdAt,value
2022-12-03T00:02:22.399Z,36.85
2022-12-03T00:05:24.971Z,41.45
2022-12-03T00:08:27.711Z,49.87
2022-12-03T00:11:30.261Z,50.42
2022-12-03T00:14:32.726Z,48.53
2022-12-03T00:17:35.677Z,43.85
2022-12-03T00:20:38.130Z,54.80
2022-12-03T00:23:42.512Z,68.23
2022-12-03T00:26:45.072Z,66.63
2022-12-03T00:29:48.616Z,70.90
2022-12-03T00:32:51.012Z,60.20
2022-12-03T00:35:53.527Z,64.55
2022-12-03T00:38:56.148Z,56.13
2022-12-03T00:41:59.664Z,48.90
2022-12-03T00:45:02.109Z,48.85
2022-12-03T00:48:04.651Z,45.75
2022-12-03T00:51:07.206Z,47.53
2022-12-03T00:54:09.636Z,47.60
2022-12-03T00:57:12.182Z,51.33
2022-12-03T01:00:16.804Z,48.00
2022-12-03T01:03:19.389Z,55.67
2022-12-03T01:06:21.984Z,49.00
2022-12-03T01:09:24.424Z,50.03
2022-12-03T01:12:26.888Z,51.67
2022-12-03T01:15:29.349Z,45.13
2022-12-03T01:18:32.089Z,43.85
2022-12-03T01:21:35.004Z,48.13
2022-12-03T01:24:37.367Z,46.67
2022-12-03T01:27:39.809Z,54.03
2022-12-03T01:31:02.289Z,48.13
2022-12-03T01:34:05.304Z,46.55
2022-12-03T01:37:07.736Z,49.13
2022-12-03T01:40:12.448Z,48.80
2022-12-03T01:43:14.909Z,47.83
2022-12-03T01:46:20.742Z,47.55
2022-12-03T01:49:28.706Z,49.28
2022-12-03T01:52:33.557Z,44.22
2022-12-03T01:55:36.275Z,41.53
2022-12-03T01:58:39.053Z,46.35
2022-12-03T02:01:41.592Z,43.50
2022-12-03T02:04:44.110Z,45.33
2022-12-03T02:07:46.949Z,51.38
2022-12-03T02:10:49.413Z,46.23
2022-12-03T02:13:55.895Z,51.50
2022-12-03T02:17:00.471Z,47.90
2022-12-03T02:20:04.756Z,58.58
2022-12-03T02:23:12.000Z,49.50
2022-12-03T02:26:14.464Z,48.90
2022-12-03T02:29:16.875Z,56.03
2022-12-03T02:32:20.608Z,56.97
2022-12-03T02:35:29.419Z,51.03
2022-12-03T02:38:32.730Z,51.03
2022-12-03T02:41:54.207Z,53.37
2022-12-03T02:45:02.037Z,44.63
2022-12-03T02:48:11.832Z,46.22
2022-12-03T02:51:14.236Z,44.85
2022-12-03T02:54:16.651Z,49.55
2022-12-03T02:57:19.151Z,45.93
2022-12-03T03:00:23.020Z,44.80
2022-12-03T03:03:27.560Z,45.38
2022-12-03T03:06:30.196Z,47.88
2022-12-03T03:09:33.642Z,41.28
2022-12-03T03:12:39.211Z,47.87
2022-12-03T03:15:42.508Z,42.08
2022-12-03T03:18:45.081Z,51.85
2022-12-03T03:21:47.922Z,47.92
2022-12-03T03:24:50.586Z,50.10
2022-12-03T03:27:53.249Z,49.87
2022-12-03T03:30:56.793Z,46.85
2022-12-03T03:33:59.238Z,45.17
2022-12-03T03:37:01.791Z,45.63
2022-12-03T03:40:04.644Z,38.75
2022-12-03T03:43:07.267Z,42.50
2022-12-03T03:46:10.351Z,42.38
2022-12-03T03:49:14.666Z,45.70
2022-12-03T03:52:18.617Z,38.25
2022-12-03T03:55:21.054Z,34.65
2022-12-03T03:58:23.479Z,40.03
2022-12-03T04:01:26.055Z,38.50
2022-12-03T04:04:33.641Z,42.67
2022-12-03T04:07:36.147Z,39.05
2022-12-03T04:10:57.002Z,40.97
2022-12-03T04:13:59.467Z,46.90
2022-12-03T04:17:01.986Z,47.83
2022-12-03T04:20:05.438Z,57.47
2022-12-03T04:23:08.133Z,48.05
2022-12-03T04:26:28.720Z,59.08
2022-12-03T04:29:31.101Z,48.70
2022-12-03T04:32:51.737Z,62.08
2022-12-03T04:35:54.233Z,50.92
2022-12-03T04:38:56.696Z,59.90
2022-12-03T04:41:59.163Z,53.55
2022-12-03T04:45:01.604Z,73.47
2022-12-03T04:48:04.351Z,68.38
2022-12-03T04:51:06.753Z,70.03
2022-12-03T04:54:09.144Z,62.03
2022-12-03T04:57:12.771Z,45.55
2022-12-03T05:00:15.883Z,48.90
2022-12-03T05:03:18.376Z,48.60
2022-12-03T05:06:20.782Z,61.97
2022-12-03T05:09:23.477Z,52.97
2022-12-03T05:12:25.916Z,69.13
2022-12-03T05:15:28.308Z,44.30
2022-12-03T05:18:30.820Z,47.00
2022-12-03T05:21:33.415Z,107.85
2022-12-03T05:24:35.848Z,47.65
2022-12-03T05:27:38.256Z,40.38
2022-12-03T05:30:41.139Z,41.27
2022-12-03T05:33:44.520Z,108.47
2022-12-03T05:36:47.128Z,64.22
2022-12-03T05:39:49.628Z,71.50
2022-12-03T05:42:55.036Z,69.07
2022-12-03T05:45:57.554Z,71.03
2022-12-03T05:49:00.144Z,63.95
2022-12-03T05:52:02.909Z,50.10
2022-12-03T05:55:05.893Z,55.08
2022-12-03T05:58:08.396Z,61.50
2022-12-03T06:01:10.783Z,66.10
2022-12-03T06:04:13.200Z,72.03
2022-12-03T06:07:15.663Z,77.78
2022-12-03T06:10:22.707Z,126.00
2022-12-03T06:13:25.096Z,78.70
2022-12-03T06:16:27.565Z,68.63
2022-12-03T06:19:30.115Z,84.40
2022-12-03T06:22:32.759Z,89.88
2022-12-03T06:25:35.163Z,106.25
2022-12-03T06:28:37.984Z,97.13
2022-12-03T06:31:40.484Z,78.77
2022-12-03T06:34:43.013Z,65.70
2022-12-03T06:37:45.492Z,60.45
2022-12-03T06:40:48.084Z,71.35
2022-12-03T06:43:50.506Z,76.22
2022-12-03T06:46:53.150Z,120.60
2022-12-03T06:49:55.627Z,90.00
2022-12-03T06:52:58.068Z,95.78
2022-12-03T06:56:00.614Z,84.90
2022-12-03T06:59:03.179Z,77.05
2022-12-03T07:02:05.900Z,74.10
2022-12-03T07:05:08.543Z,82.20
2022-12-03T07:08:11.232Z,68.80
2022-12-03T07:11:32.159Z,68.15
2022-12-03T07:14:34.551Z,72.90
2022-12-03T07:17:36.956Z,59.40
2022-12-03T07:20:39.567Z,109.68
2022-12-03T07:23:42.005Z,84.57
2022-12-03T07:26:44.393Z,71.57
2022-12-03T07:29:46.954Z,69.40
2022-12-03T07:32:49.496Z,56.10
2022-12-03T07:35:52.286Z,55.53
2022-12-03T07:38:54.882Z,76.35
2022-12-03T07:41:57.421Z,78.40
2022-12-03T07:44:59.851Z,90.35
2022-12-03T07:48:02.273Z,92.27
2022-12-03T07:51:05.253Z,68.35
2022-12-03T07:54:07.830Z,58.65
2022-12-03T07:57:10.232Z,82.20
2022-12-03T08:00:13.268Z,95.80
2022-12-03T08:03:15.718Z,50.23
2022-12-03T08:06:18.216Z,67.63
2022-12-03T08:09:20.608Z,50.28
2022-12-03T08:12:40.158Z,45.05
2022-12-03T08:15:43.207Z,49.78
2022-12-03T08:18:46.781Z,164.73
2022-12-03T08:21:49.578Z,63.45
2022-12-03T08:24:52.316Z,51.78
2022-12-03T08:28:07.881Z,36.05
2022-12-03T08:31:12.973Z,37.35
2022-12-03T08:34:17.665Z,40.83
2022-12-03T08:37:20.144Z,50.75
2022-12-03T08:40:26.171Z,40.10
2022-12-03T08:43:29.356Z,47.33
2022-12-03T08:46:31.783Z,44.60
2022-12-03T08:49:34.408Z,43.63
2022-12-03T08:52:37.019Z,40.83
2022-12-03T08:55:43.659Z,49.25
2022-12-03T08:59:24.073Z,47.38
2022-12-03T09:02:31.903Z,63.42
2022-12-03T09:05:52.463Z,54.90
2022-12-03T09:08:55.014Z,50.75
2022-12-03T09:11:57.605Z,46.08
2022-12-03T09:14:59.980Z,45.78
2022-12-03T09:18:02.425Z,39.05
2022-12-03T09:21:05.803Z,37.43
2022-12-03T09:24:08.301Z,36.30
2022-12-03T09:27:10.708Z,35.45
2022-12-03T09:30:13.424Z,32.63
2022-12-03T09:33:15.908Z,37.42
2022-12-03T09:36:18.405Z,32.77
2022-12-03T09:39:20.951Z,35.20
2022-12-03T09:42:23.377Z,33.47
2022-12-03T09:45:25.900Z,32.50
2022-12-03T09:48:28.357Z,33.35
2022-12-03T09:51:35.484Z,30.17
2022-12-03T09:54:41.636Z,27.92
2022-12-03T09:57:48.249Z,50.38
2022-12-03T10:00:52.302Z,28.25
2022-12-03T10:03:54.788Z,30.63
2022-12-03T10:06:58.094Z,30.87
2022-12-03T10:10:00.546Z,27.10
2022-12-03T10:13:06.279Z,30.83
2022-12-03T10:16:12.209Z,26.65
2022-12-03T10:19:22.891Z,26.95
2022-12-03T10:22:25.315Z,31.27
2022-12-03T10:25:27.711Z,33.53
2022-12-03T10:28:33.213Z,29.33
2022-12-03T10:31:36.727Z,28.58
2022-12-03T10:34:42.530Z,29.60
2022-12-03T10:37:56.776Z,28.83
2022-12-03T10:41:00.108Z,34.28
2022-12-03T10:44:30.642Z,27.58
2022-12-03T10:47:33.268Z,27.15
2022-12-03T10:50:36.288Z,32.03
2022-12-03T10:53:40.576Z,28.83
2022-12-03T10:56:43.273Z,28.13
2022-12-03T10:59:45.702Z,26.05
2022-12-03T11:02:54.925Z,28.30
2022-12-03T11:06:05.991Z,30.05
2022-12-03T11:09:20.110Z,29.60
2022-12-03T11:12:28.625Z,31.05
2022-12-03T11:15:44.345Z,31.23
2022-12-03T11:18:49.852Z,25.55
2022-12-03T11:22:05.626Z,26.50
2022-12-03T11:25:28.803Z,26.77
2022-12-03T11:28:32.036Z,26.42
2022-12-03T11:31:39.536Z,24.85
2022-12-03T11:34:42.141Z,26.88
2022-12-03T11:37:44.656Z,24.65
2022-12-03T11:41:11.086Z,27.03
2022-12-03T11:44:31.754Z,24.15
2022-12-03T11:47:38.518Z,23.77
2022-12-03T11:50:52.037Z,23.35
2022-12-03T11:53:58.524Z,22.98
2022-12-03T11:57:01.152Z,23.23
2022-12-03T12:00:20.616Z,20.45
2022-12-03T12:03:33.286Z,22.02
2022-12-03T12:06:48.709Z,25.17
2022-12-03T12:09:55.489Z,25.77
2022-12-03T12:12:58.213Z,22.03
2022-12-03T12:16:06.250Z,34.83
2022-12-03T12:19:43.269Z,25.17
2022-12-03T12:22:45.664Z,21.83
2022-12-03T12:25:53.793Z,19.25
2022-12-03T12:28:56.711Z,21.13
2022-12-03T12:32:13.212Z,19.58
2022-12-03T12:35:19.180Z,19.67
2022-12-03T12:38:22.622Z,19.90
2022-12-03T12:41:25.071Z,20.20
2022-12-03T12:44:27.432Z,18.20
2022-12-03T12:47:30.307Z,20.98
2022-12-03T12:50:33.324Z,19.60
2022-12-03T12:53:36.889Z,19.67
2022-12-03T12:56:42.453Z,19.85
2022-12-03T12:59:45.265Z,19.63
2022-12-03T13:02:55.223Z,21.38
2022-12-03T13:05:57.993Z,19.75
2022-12-03T13:09:01.268Z,19.00
2022-12-03T13:12:04.254Z,19.42
2022-12-03T13:15:17.216Z,19.03
2022-12-03T13:18:28.615Z,20.23
2022-12-03T13:21:41.611Z,21.88
2022-12-03T13:24:47.696Z,45.55
2022-12-03T13:27:50.757Z,30.52
2022-12-03T13:30:53.306Z,25.53
2022-12-03T13:33:56.415Z,24.67
2022-12-03T13:37:01.002Z,35.30
2022-12-03T13:40:20.979Z,58.85
2022-12-03T13:43:23.405Z,39.20
2022-12-03T13:46:28.408Z,37.97
2022-12-03T13:49:30.951Z,31.42
2022-12-03T13:52:34.783Z,24.48
2022-12-03T13:55:40.421Z,23.70
2022-12-03T13:58:42.876Z,23.95
2022-12-03T14:01:45.829Z,25.90
2022-12-03T14:04:48.349Z,25.85
2022-12-03T14:07:50.821Z,26.92
2022-12-03T14:10:59.891Z,25.60
2022-12-03T14:14:03.329Z,23.98
2022-12-03T14:17:06.602Z,28.30
2022-12-03T14:20:10.042Z,28.33
2022-12-03T14:23:12.619Z,33.05
2022-12-03T14:26:15.327Z,37.65
2022-12-03T14:29:17.808Z,28.23
2022-12-03T14:32:20.177Z,47.00
2022-12-03T14:35:23.358Z,57.33
2022-12-03T14:38:25.976Z,38.33
2022-12-03T14:41:46.929Z,26.75
2022-12-03T14:44:50.496Z,27.98
2022-12-03T14:47:52.950Z,31.80
2022-12-03T14:50:55.414Z,32.83
2022-12-03T14:53:57.844Z,33.50
2022-12-03T14:57:00.591Z,31.63
2022-12-03T15:00:04.234Z,30.33
2022-12-03T15:03:06.745Z,30.77
2022-12-03T15:06:09.248Z,27.58
2022-12-03T15:09:12.063Z,29.60
2022-12-03T15:12:15.378Z,31.75
2022-12-03T15:15:17.849Z,29.65
2022-12-03T15:18:20.363Z,36.37
2022-12-03T15:21:22.738Z,34.33
2022-12-03T15:24:25.363Z,29.08
2022-12-03T15:27:27.808Z,29.40
2022-12-03T15:30:30.869Z,31.73
2022-12-03T15:33:33.397Z,28.83
2022-12-03T15:36:35.897Z,35.95
2022-12-03T15:39:42.459Z,36.95
2022-12-03T15:42:49.231Z,32.60
2022-12-03T15:45:51.802Z,31.45
2022-12-03T15:48:55.053Z,35.90
2022-12-03T15:51:57.584Z,40.60
2022-12-03T15:55:00.036Z,34.67
2022-12-03T15:58:02.444Z,49.13
2022-12-03T16:01:05.351Z,103.63
2022-12-03T16:04:08.157Z,107.00
2022-12-03T16:07:10.852Z,113.95
2022-12-03T16:10:13.383Z,86.50
2022-12-03T16:13:15.938Z,57.33
2022-12-03T16:16:18.653Z,44.85
2022-12-03T16:19:21.564Z,39.83
2022-12-03T16:22:24.207Z,38.45
2022-12-03T16:25:26.564Z,48.63
2022-12-03T16:28:29.332Z,39.90
2022-12-03T16:31:32.074Z,34.15
2022-12-03T16:34:34.772Z,37.73
2022-12-03T16:37:37.160Z,35.67
2022-12-03T16:40:39.978Z,30.33
2022-12-03T16:43:45.524Z,39.25
2022-12-03T16:46:48.135Z,54.58
2022-12-03T16:49:50.740Z,44.67
2022-12-03T16:52:53.243Z,45.70
2022-12-03T16:55:55.692Z,45.67
2022-12-03T16:58:58.154Z,39.22
2022-12-03T17:02:00.659Z,52.60
2022-12-03T17:05:03.479Z,45.73
2022-12-03T17:08:06.072Z,41.10
2022-12-03T17:11:09.221Z,39.67
2022-12-03T17:14:12.157Z,54.33
2022-12-03T17:17:14.589Z,40.88
2022-12-03T17:20:17.905Z,42.17
2022-12-03T17:23:20.336Z,46.53
2022-12-03T17:26:22.833Z,37.38
2022-12-03T17:29:25.892Z,39.58
2022-12-03T17:32:28.604Z,41.05
2022-12-03T17:35:31.118Z,36.20
2022-12-03T17:38:38.773Z,34.40
2022-12-03T17:41:42.038Z,42.33
2022-12-03T17:44:44.500Z,36.05
2022-12-03T17:47:46.952Z,50.45
2022-12-03T17:50:50.223Z,131.57
2022-12-03T17:53:52.630Z,178.77
2022-12-03T17:56:55.057Z,85.38
2022-12-03T17:59:57.610Z,65.22
2022-12-03T18:03:00.239Z,98.90
2022-12-03T18:06:03.307Z,61.87
2022-12-03T18:09:05.893Z,60.63
2022-12-03T18:12:08.321Z,56.88
2022-12-03T18:15:11.537Z,55.85
2022-12-03T18:18:14.380Z,56.33
2022-12-03T18:21:16.777Z,78.47
2022-12-03T18:24:19.434Z,69.03
2022-12-03T18:27:22.547Z,65.40
2022-12-03T18:30:25.193Z,55.45
2022-12-03T18:33:27.765Z,52.78
2022-12-03T18:36:34.481Z,46.97
2022-12-03T18:39:37.159Z,77.05
2022-12-03T18:42:39.689Z,66.60
2022-12-03T18:45:42.607Z,65.75
2022-12-03T18:48:48.076Z,69.15
2022-12-03T18:51:54.472Z,68.33
2022-12-03T18:55:01.343Z,67.28
2022-12-03T18:58:04.086Z,75.70
2022-12-03T19:01:08.043Z,67.57
2022-12-03T19:04:11.028Z,74.75
2022-12-03T19:07:13.952Z,92.30
2022-12-03T19:10:17.829Z,88.38
2022-12-03T19:13:20.471Z,83.10
2022-12-03T19:16:23.540Z,73.63
2022-12-03T19:19:27.374Z,79.25
2022-12-03T19:22:29.786Z,81.30
2022-12-03T19:25:33.047Z,68.80
2022-12-03T19:28:35.989Z,64.88
2022-12-03T19:31:39.503Z,64.00
2022-12-03T19:34:42.358Z,58.15
2022-12-03T19:37:46.444Z,53.53
2022-12-03T19:40:58.645Z,57.72
2022-12-03T19:44:03.153Z,48.72
2022-12-03T19:47:09.391Z,49.53
2022-12-03T19:50:19.318Z,47.10
2022-12-03T19:53:26.244Z,42.20
2022-12-03T19:56:30.494Z,47.22
2022-12-03T19:59:33.268Z,38.55
2022-12-03T20:02:35.973Z,43.45
2022-12-03T20:05:40.305Z,39.03
2022-12-03T20:08:43.412Z,36.70
2022-12-03T20:11:46.430Z,42.38
2022-12-03T20:14:50.112Z,53.67
2022-12-03T20:17:53.209Z,45.25
2022-12-03T20:21:00.089Z,58.42
2022-12-03T20:24:02.742Z,80.90
2022-12-03T20:27:05.466Z,72.18
2022-12-03T20:30:08.466Z,86.22
2022-12-03T20:33:13.613Z,49.88
2022-12-03T20:36:17.834Z,39.97
2022-12-03T20:39:20.674Z,38.03
2022-12-03T20:42:23.540Z,35.70
2022-12-03T20:45:27.307Z,36.92
2022-12-03T20:48:30.130Z,46.90
2022-12-03T20:51:33.024Z,51.42
2022-12-03T20:54:35.784Z,44.33
2022-12-03T20:57:38.237Z,64.82
2022-12-03T21:00:40.975Z,65.85
2022-12-03T21:03:45.165Z,67.15
2022-12-03T21:06:47.759Z,63.25
2022-12-03T21:09:50.877Z,79.07
2022-12-03T21:12:53.568Z,144.15
2022-12-03T21:16:07.256Z,118.57
2022-12-03T21:19:09.780Z,96.45
2022-12-03T21:22:12.352Z,94.70
2022-12-03T21:25:15.163Z,83.03
2022-12-03T21:28:17.547Z,90.53
2022-12-03T21:31:25.827Z,80.68
2022-12-03T21:34:35.518Z,71.82
2022-12-03T21:37:38.600Z,70.20
2022-12-03T21:40:41.070Z,76.03
2022-12-03T21:43:43.934Z,69.93
2022-12-03T21:47:12.689Z,67.25
2022-12-03T21:50:11.516Z,62.47
2022-12-03T21:53:13.930Z,71.50
2022-12-03T21:56:19.109Z,74.53
2022-12-03T21:59:21.607Z,81.53
2022-12-03T22:02:24.079Z,75.22
2022-12-03T22:05:26.558Z,83.28
2022-12-03T22:08:28.948Z,84.10
2022-12-03T22:11:31.449Z,78.30
2022-12-03T22:14:33.819Z,76.70
2022-12-03T22:17:37.201Z,70.80
2022-12-03T22:20:42.238Z,78.15
2022-12-03T22:23:45.071Z,70.70
2022-12-03T22:26:47.705Z,82.77
2022-12-03T22:29:50.157Z,89.05
2022-12-03T22:32:52.621Z,93.28
2022-12-03T22:35:59.954Z,73.03
2022-12-03T22:39:02.369Z,75.03
2022-12-03T22:42:04.997Z,70.50
2022-12-03T22:45:07.615Z,76.25
2022-12-03T22:48:10.280Z,76.35
2022-12-03T22:51:17.402Z,72.72
2022-12-03T22:54:23.915Z,84.97
2022-12-03T22:57:26.829Z,82.00
2022-12-03T23:00:32.621Z,81.40
2022-12-03T23:03:35.252Z,68.22
2022-12-03T23:06:38.205Z,71.68
2022-12-03T23:09:40.945Z,62.35
2022-12-03T23:12:43.661Z,60.40
2022-12-03T23:15:47.496Z,62.25
2022-12-03T23:18:50.688Z,61.33
2022-12-03T23:21:53.129Z,58.47
2022-12-03T23:24:55.633Z,64.35
2022-12-03T23:27:58.036Z,81.40
2022-12-03T23:31:00.784Z,90.75
2022-12-03T23:34:03.937Z,84.25
2022-12-03T23:37:06.500Z,63.72
2022-12-03T23:40:09.384Z,90.03
2022-12-03T23:43:11.951Z,87.87
2022-12-03T23:46:16.984Z,66.90
2022-12-03T23:49:19.449Z,92.55
2022-12-03T23:52:21.943Z,100.68
2022-12-03T23:55:24.409Z,100.18
2022-12-03T23:58:27.040Z,88.03
